createdAt,value
2018-09-23T00:00:09.145Z,10.08
2018-09-23T00:01:16.876Z,10.40
2018-09-23T00:02:21.207Z,9.98
2018-09-23T00:03:26.309Z,10.38
2018-09-23T00:04:30.678Z,9.83
2018-09-23T00:05:35.293Z,9.03
2018-09-23T00:06:39.583Z,10.43
2018-09-23T00:07:44.333Z,9.25
2018-09-23T00:08:49.785Z,8.80
2018-09-23T00:09:54.180Z,8.88
2018-09-23T00:10:58.850Z,10.03
2018-09-23T00:12:03.598Z,10.60
2018-09-23T00:13:08.170Z,9.88
2018-09-23T00:14:12.599Z,9.05
2018-09-23T00:15:17.278Z,11.15
2018-09-23T00:16:22.321Z,9.48
2018-09-23T00:17:27.349Z,10.45
2018-09-23T00:18:32.336Z,9.33
2018-09-23T00:19:40.164Z,10.10
2018-09-23T00:20:45.148Z,10.65
2018-09-23T00:21:49.534Z,10.90
2018-09-23T00:22:53.834Z,9.83
2018-09-23T00:23:58.343Z,10.30
2018-09-23T00:25:02.697Z,10.85
2018-09-23T00:26:07.847Z,11.12
2018-09-23T00:27:12.209Z,9.88
2018-09-23T00:28:16.849Z,10.18
2018-09-23T00:29:26.179Z,11.88
2018-09-23T00:30:30.715Z,13.30
2018-09-23T00:31:35.009Z,12.70
2018-09-23T00:32:39.630Z,15.23
2018-09-23T00:33:44.661Z,15.20
2018-09-23T00:34:49.017Z,18.00
2018-09-23T00:35:53.300Z,20.37
2018-09-23T00:36:58.915Z,21.00
2018-09-23T00:38:03.309Z,22.48
2018-09-23T00:39:08.233Z,26.05
2018-09-23T00:40:13.569Z,25.62
2018-09-23T00:41:18.462Z,28.00
2018-09-23T00:42:22.987Z,25.68
2018-09-23T00:43:27.297Z,26.02
2018-09-23T00:44:32.828Z,26.15
2018-09-23T00:45:37.119Z,26.97
2018-09-23T00:46:41.530Z,25.92
2018-09-23T00:47:45.798Z,25.37
2018-09-23T00:48:51.868Z,23.32
2018-09-23T00:49:56.465Z,25.70
2018-09-23T00:51:00.965Z,25.55
2018-09-23T00:52:05.265Z,21.00
2018-09-23T00:53:09.788Z,20.37
2018-09-23T00:54:14.086Z,20.57
2018-09-23T00:55:23.590Z,13.50
2018-09-23T00:56:29.110Z,14.00
2018-09-23T00:57:33.417Z,14.45
2018-09-23T00:58:37.922Z,13.83
2018-09-23T00:59:42.217Z,12.20
2018-09-23T01:00:46.540Z,13.50
2018-09-23T01:02:21.575Z,14.00
2018-09-23T01:03:26.857Z,14.43
2018-09-23T01:04:31.481Z,12.98
2018-09-23T01:05:36.120Z,12.90
2018-09-23T01:06:42.149Z,17.17
2018-09-23T01:07:46.413Z,15.90
2018-09-23T01:08:50.793Z,15.30
2018-09-23T01:09:55.036Z,14.40
2018-09-23T01:10:59.385Z,15.60
2018-09-23T01:12:03.959Z,17.00
2018-09-23T01:13:23.164Z,15.98
2018-09-23T01:14:28.950Z,15.45
2018-09-23T01:15:33.309Z,13.35
2018-09-23T01:16:37.564Z,14.75
2018-09-23T01:17:42.289Z,16.07
2018-09-23T01:18:47.954Z,15.48
2018-09-23T01:19:52.768Z,16.15
2018-09-23T01:20:57.028Z,16.17
2018-09-23T01:22:01.368Z,16.42
2018-09-23T01:23:06.179Z,12.95
2018-09-23T01:24:10.548Z,13.35
2018-09-23T01:25:14.877Z,15.28
2018-09-23T01:26:19.996Z,11.35
2018-09-23T01:27:25.614Z,12.43
2018-09-23T01:28:30.015Z,11.97
2018-09-23T01:29:34.413Z,10.50
2018-09-23T01:30:39.436Z,9.88
2018-09-23T01:31:44.008Z,11.00
2018-09-23T01:32:49.350Z,12.90
2018-09-23T01:33:53.823Z,13.38
2018-09-23T01:34:58.110Z,11.35
2018-09-23T01:36:02.750Z,8.68
2018-09-23T01:37:07.909Z,8.28
2018-09-23T01:38:12.278Z,9.90
2018-09-23T01:39:16.625Z,9.00
2018-09-23T01:40:22.298Z,8.85
2018-09-23T01:41:26.621Z,8.50
2018-09-23T01:42:30.871Z,6.17
2018-09-23T01:43:35.709Z,5.58
2018-09-23T01:44:40.273Z,4.72
2018-09-23T01:45:44.659Z,5.12
2018-09-23T01:46:51.259Z,5.75
2018-09-23T01:47:56.205Z,5.28
2018-09-23T01:49:01.305Z,4.58
2018-09-23T01:50:06.084Z,5.58
2018-09-23T01:51:10.814Z,5.10
2018-09-23T01:52:15.231Z,5.03
2018-09-23T01:53:19.487Z,4.45
2018-09-23T01:54:23.857Z,5.20
2018-09-23T01:55:28.307Z,4.37
2018-09-23T01:56:32.901Z,5.12
2018-09-23T01:57:37.181Z,4.67
2018-09-23T01:58:41.484Z,4.60
2018-09-23T01:59:46.168Z,6.05
2018-09-23T02:00:50.726Z,4.35
2018-09-23T02:01:55.163Z,4.53
2018-09-23T02:03:00.205Z,4.33
2018-09-23T02:04:04.649Z,4.45
2018-09-23T02:05:08.928Z,4.75
2018-09-23T02:06:13.585Z,4.20
2018-09-23T02:07:18.037Z,4.72
2018-09-23T02:08:22.717Z,5.25
2018-09-23T02:09:27.113Z,5.12
2018-09-23T02:10:31.410Z,4.50
2018-09-23T02:11:36.254Z,4.85
2018-09-23T02:12:41.380Z,5.70
2018-09-23T02:13:46.656Z,6.00
2018-09-23T02:14:50.974Z,5.30
2018-09-23T02:15:55.222Z,6.10
2018-09-23T02:17:00.192Z,5.75
2018-09-23T02:18:04.725Z,5.12
2018-09-23T02:19:09.012Z,5.30
2018-09-23T02:20:13.457Z,6.28
2018-09-23T02:21:17.922Z,5.15
2018-09-23T02:22:22.298Z,5.70
2018-09-23T02:23:26.934Z,6.55
2018-09-23T02:24:31.215Z,5.58
2018-09-23T02:25:35.753Z,7.00
2018-09-23T02:26:41.298Z,6.53
2018-09-23T02:27:45.877Z,5.80
2018-09-23T02:28:50.193Z,5.72
2018-09-23T02:29:54.872Z,6.60
2018-09-23T02:30:59.093Z,6.90
2018-09-23T02:32:03.385Z,7.42
2018-09-23T02:33:07.798Z,5.80
2018-09-23T02:34:12.070Z,5.65
2018-09-23T02:35:16.376Z,5.22
2018-09-23T02:36:20.649Z,6.50
2018-09-23T02:37:25.010Z,5.85
2018-09-23T02:38:29.425Z,5.78
2018-09-23T02:39:33.800Z,6.35
2018-09-23T02:40:38.335Z,5.83
2018-09-23T02:41:42.635Z,5.37
2018-09-23T02:42:47.140Z,6.95
2018-09-23T02:43:51.810Z,6.53
2018-09-23T02:44:56.128Z,6.00
2018-09-23T02:46:04.168Z,5.35
2018-09-23T02:47:08.540Z,5.65
2018-09-23T02:48:13.096Z,5.55
2018-09-23T02:49:17.703Z,5.92
2018-09-23T02:50:22.368Z,5.40
2018-09-23T02:51:28.556Z,6.03
2018-09-23T02:52:33.129Z,5.83
2018-09-23T02:53:37.413Z,5.42
2018-09-23T02:54:42.292Z,5.20
2018-09-23T02:55:46.601Z,5.80
2018-09-23T02:56:50.934Z,4.80
2018-09-23T02:57:55.258Z,6.28
2018-09-23T02:59:00.348Z,5.25
2018-09-23T03:00:06.901Z,5.10
2018-09-23T03:01:11.501Z,4.95
2018-09-23T03:02:15.876Z,5.28
2018-09-23T03:03:20.682Z,5.05
2018-09-23T03:04:25.012Z,5.85
2018-09-23T03:05:29.557Z,5.60
2018-09-23T03:06:34.121Z,5.42
2018-09-23T03:07:38.469Z,5.40
2018-09-23T03:08:45.501Z,5.30
2018-09-23T03:09:50.287Z,5.30
2018-09-23T03:10:54.742Z,4.83
2018-09-23T03:12:00.176Z,5.10
2018-09-23T03:13:04.483Z,4.70
2018-09-23T03:14:09.005Z,5.35
2018-09-23T03:15:13.392Z,4.45
2018-09-23T03:16:17.785Z,4.70
2018-09-23T03:17:22.069Z,5.12
2018-09-23T03:18:30.659Z,4.92
2018-09-23T03:19:35.144Z,4.85
2018-09-23T03:20:39.678Z,4.95
2018-09-23T03:21:43.913Z,4.70
2018-09-23T03:22:48.181Z,5.58
2018-09-23T03:23:52.653Z,4.78
2018-09-23T03:24:57.818Z,5.42
2018-09-23T03:26:02.220Z,5.20
2018-09-23T03:27:06.499Z,3.98
2018-09-23T03:28:10.921Z,4.70
2018-09-23T03:29:15.462Z,5.22
2018-09-23T03:30:19.766Z,4.78
2018-09-23T03:31:24.098Z,4.40
2018-09-23T03:32:28.357Z,4.97
2018-09-23T03:33:32.629Z,4.20
2018-09-23T03:34:37.381Z,4.58
2018-09-23T03:35:42.366Z,3.85
2018-09-23T03:36:46.687Z,3.70
2018-09-23T03:37:51.038Z,3.90
2018-09-23T03:38:55.348Z,3.92
2018-09-23T03:39:59.710Z,4.20
2018-09-23T03:41:04.131Z,4.95
2018-09-23T03:42:08.440Z,3.80
2018-09-23T03:43:12.833Z,3.60
2018-09-23T03:44:18.009Z,3.60
2018-09-23T03:45:22.320Z,4.10
2018-09-23T03:46:26.547Z,2.75
2018-09-23T03:47:31.150Z,3.35
2018-09-23T03:50:32.108Z,2.35
2018-09-23T03:51:36.700Z,2.15
2018-09-23T03:52:41.175Z,3.10
2018-09-23T03:53:46.417Z,2.50
2018-09-23T03:54:50.762Z,2.20
2018-09-23T03:55:55.208Z,2.87
2018-09-23T03:56:59.474Z,2.70
2018-09-23T03:58:04.214Z,2.35
2018-09-23T03:59:08.675Z,2.15
2018-09-23T04:00:13.338Z,2.98
2018-09-23T04:01:17.688Z,2.75
2018-09-23T04:02:21.993Z,3.10
2018-09-23T04:03:26.429Z,2.20
2018-09-23T04:04:32.371Z,2.30
2018-09-23T04:05:37.087Z,2.40
2018-09-23T04:06:41.570Z,2.72
2018-09-23T04:07:46.013Z,2.83
2018-09-23T04:08:50.648Z,2.40
2018-09-23T04:09:55.278Z,2.37
2018-09-23T04:10:59.842Z,2.72
2018-09-23T04:12:05.330Z,2.52
2018-09-23T04:13:09.822Z,2.87
2018-09-23T04:14:14.189Z,2.60
2018-09-23T04:15:18.654Z,3.65
2018-09-23T04:16:23.093Z,2.22
2018-09-23T04:17:27.749Z,2.40
2018-09-23T04:18:32.073Z,2.58
2018-09-23T04:19:36.565Z,2.17
2018-09-23T04:20:40.907Z,2.37
2018-09-23T04:21:45.237Z,1.85
2018-09-23T04:22:52.210Z,2.47
2018-09-23T04:23:56.417Z,2.80
2018-09-23T04:25:00.824Z,2.40
2018-09-23T04:26:05.265Z,2.75
2018-09-23T04:27:09.789Z,2.67
2018-09-23T04:28:14.412Z,3.00
2018-09-23T04:29:19.709Z,2.70
2018-09-23T04:30:24.425Z,2.90
2018-09-23T04:31:28.875Z,2.70
2018-09-23T04:32:34.237Z,2.50
2018-09-23T04:33:38.896Z,2.15
2018-09-23T04:34:44.326Z,2.55
2018-09-23T04:35:51.231Z,2.22
2018-09-23T04:36:55.791Z,2.10
2018-09-23T04:38:00.761Z,2.35
2018-09-23T04:39:07.794Z,2.40
2018-09-23T04:40:13.910Z,2.52
2018-09-23T04:41:18.280Z,2.87
2018-09-23T04:42:22.722Z,2.67
2018-09-23T04:43:34.289Z,2.35
2018-09-23T04:44:40.583Z,2.02
2018-09-23T04:45:45.967Z,2.72
2018-09-23T04:46:50.256Z,2.10
2018-09-23T04:47:55.580Z,2.33
2018-09-23T04:48:59.906Z,1.90
2018-09-23T04:50:09.121Z,2.45
2018-09-23T04:51:15.583Z,1.87
2018-09-23T04:52:20.206Z,1.85
2018-09-23T04:53:29.338Z,2.20
2018-09-23T04:54:36.676Z,2.33
2018-09-23T04:55:42.261Z,2.33
2018-09-23T04:56:46.857Z,2.42
2018-09-23T04:57:55.324Z,2.05
2018-09-23T04:59:00.334Z,1.75
2018-09-23T05:00:06.791Z,2.00
2018-09-23T05:01:18.925Z,2.00
2018-09-23T05:02:27.749Z,1.90
2018-09-23T05:03:41.707Z,1.98
2018-09-23T05:04:48.857Z,1.62
2018-09-23T05:05:53.701Z,1.92
2018-09-23T05:06:58.006Z,2.05
2018-09-23T05:08:02.835Z,2.17
2018-09-23T05:09:09.706Z,2.25
2018-09-23T05:10:14.722Z,1.92
2018-09-23T05:11:19.744Z,1.62
2018-09-23T05:12:26.891Z,2.10
2018-09-23T05:13:31.308Z,1.70
2018-09-23T05:14:35.717Z,1.80
2018-09-23T05:15:40.089Z,1.90
2018-09-23T05:16:45.406Z,1.17
2018-09-23T05:17:50.212Z,1.42
2018-09-23T05:18:54.807Z,1.30
2018-09-23T05:19:59.066Z,1.42
2018-09-23T05:21:03.434Z,1.47
2018-09-23T05:22:08.812Z,1.30
2018-09-23T05:23:13.422Z,1.40
2018-09-23T05:24:19.957Z,1.60
2018-09-23T05:25:24.416Z,1.00
2018-09-23T05:26:28.940Z,1.50
2018-09-23T05:27:33.991Z,1.30
2018-09-23T05:28:38.735Z,1.10
2018-09-23T05:29:43.858Z,1.40
2018-09-23T05:30:48.645Z,1.10
2018-09-23T05:31:53.330Z,1.32
2018-09-23T05:32:59.329Z,1.20
2018-09-23T05:34:04.681Z,1.40
2018-09-23T05:35:10.497Z,0.90
2018-09-23T05:36:14.975Z,1.32
2018-09-23T05:37:21.134Z,1.22
2018-09-23T05:38:26.131Z,1.35
2018-09-23T05:39:33.479Z,1.00
2018-09-23T05:40:37.746Z,1.50
2018-09-23T05:41:43.137Z,1.52
2018-09-23T05:42:47.565Z,1.10
2018-09-23T05:43:52.523Z,1.30
2018-09-23T05:44:56.848Z,1.20
2018-09-23T05:46:01.339Z,1.25
2018-09-23T05:47:05.910Z,1.95
2018-09-23T05:48:11.332Z,1.20
2018-09-23T05:49:16.400Z,1.10
2018-09-23T05:50:20.980Z,1.10
2018-09-23T05:51:25.557Z,1.30
2018-09-23T05:52:30.146Z,1.30
2018-09-23T05:53:34.839Z,1.17
2018-09-23T05:54:39.466Z,1.05
2018-09-23T05:55:44.736Z,1.30
2018-09-23T05:56:49.016Z,1.30
2018-09-23T05:57:53.930Z,1.27
2018-09-23T05:58:58.880Z,1.32
2018-09-23T06:00:03.701Z,1.52
2018-09-23T06:01:08.391Z,1.17
2018-09-23T06:02:12.829Z,1.20
2018-09-23T06:03:17.349Z,1.40
2018-09-23T06:04:21.609Z,1.15
2018-09-23T06:05:26.871Z,1.32
2018-09-23T06:06:31.657Z,1.07
2018-09-23T06:07:36.271Z,0.98
2018-09-23T06:08:40.425Z,1.07
2018-09-23T06:09:45.694Z,1.05
2018-09-23T06:10:50.973Z,1.10
2018-09-23T06:11:55.657Z,0.93
2018-09-23T06:13:00.585Z,1.12
2018-09-23T06:14:05.943Z,1.40
2018-09-23T06:15:10.537Z,1.40
2018-09-23T06:16:14.894Z,1.70
2018-09-23T06:17:19.232Z,1.45
2018-09-23T06:18:25.195Z,0.80
2018-09-23T06:19:30.328Z,1.10
2018-09-23T06:20:41.603Z,1.20
2018-09-23T06:21:45.972Z,1.90
2018-09-23T06:22:50.211Z,1.32
2018-09-23T06:23:54.912Z,1.27
2018-09-23T06:24:59.201Z,1.67
2018-09-23T06:26:03.693Z,1.55
2018-09-23T06:27:08.325Z,1.20
2018-09-23T06:28:12.625Z,1.60
2018-09-23T06:29:17.011Z,1.40
2018-09-23T06:30:23.181Z,1.30
2018-09-23T06:31:28.172Z,1.22
2018-09-23T06:32:32.836Z,1.57
2018-09-23T06:33:37.910Z,2.40
2018-09-23T06:34:43.627Z,1.65
2018-09-23T06:36:44.210Z,1.80
2018-09-23T06:37:48.721Z,1.40
2018-09-23T06:38:53.302Z,1.60
2018-09-23T06:39:57.889Z,1.52
2018-09-23T06:41:03.394Z,1.82
2018-09-23T06:42:08.298Z,1.42
2018-09-23T06:43:12.896Z,1.45
2018-09-23T06:44:17.373Z,1.35
2018-09-23T06:45:25.912Z,1.30
2018-09-23T06:46:30.485Z,1.45
2018-09-23T06:47:36.343Z,1.40
2018-09-23T06:48:41.546Z,1.40
2018-09-23T06:49:46.078Z,1.32
2018-09-23T06:50:50.761Z,1.60
2018-09-23T06:51:55.278Z,1.60
2018-09-23T06:53:01.270Z,1.25
2018-09-23T06:54:06.589Z,1.20
2018-09-23T06:55:11.438Z,1.00
2018-09-23T06:56:20.392Z,1.50
2018-09-23T06:57:26.900Z,0.90
2018-09-23T06:58:31.392Z,1.37
2018-09-23T06:59:36.333Z,1.35
2018-09-23T07:00:40.774Z,1.30
2018-09-23T07:01:46.437Z,1.20
2018-09-23T07:02:57.244Z,1.17
2018-09-23T07:04:01.873Z,1.65
2018-09-23T07:05:06.846Z,1.55
2018-09-23T07:06:14.655Z,1.32
2018-09-23T07:07:19.113Z,1.85
2018-09-23T07:08:24.358Z,1.80
2018-09-23T07:09:30.326Z,1.32
2018-09-23T07:10:35.070Z,1.67
2018-09-23T07:11:39.863Z,1.82
2018-09-23T07:12:48.259Z,1.60
2018-09-23T07:13:52.868Z,1.35
2018-09-23T07:14:58.429Z,1.30
2018-09-23T07:16:02.956Z,2.20
2018-09-23T07:17:08.166Z,1.98
2018-09-23T07:18:14.554Z,1.50
2018-09-23T07:19:19.686Z,1.62
2018-09-23T07:20:26.907Z,1.45
2018-09-23T07:21:32.558Z,1.65
2018-09-23T07:22:38.421Z,1.80
2018-09-23T07:23:43.311Z,1.10
2018-09-23T07:24:47.762Z,1.45
2018-09-23T07:25:52.310Z,2.37
2018-09-23T07:26:57.076Z,1.95
2018-09-23T07:28:02.243Z,1.40
2018-09-23T07:29:08.644Z,1.50
2018-09-23T07:30:14.431Z,1.75
2018-09-23T07:31:21.039Z,1.20
2018-09-23T07:32:27.059Z,1.20
2018-09-23T07:33:32.318Z,1.52
2018-09-23T07:34:38.301Z,1.52
2018-09-23T07:35:43.148Z,1.42
2018-09-23T07:36:49.372Z,1.37
2018-09-23T07:37:55.058Z,1.20
2018-09-23T07:39:00.900Z,1.15
2018-09-23T07:40:08.048Z,1.45
2018-09-23T07:41:12.923Z,1.37
2018-09-23T07:42:18.222Z,1.50
2018-09-23T07:43:25.833Z,1.30
2018-09-23T07:44:30.359Z,1.02
2018-09-23T07:45:37.860Z,1.10
2018-09-23T07:46:49.263Z,1.98
2018-09-23T07:47:55.067Z,2.02
2018-09-23T07:49:00.405Z,1.60
2018-09-23T07:50:07.410Z,2.20
2018-09-23T07:51:11.943Z,1.40
2018-09-23T07:52:16.774Z,1.42
2018-09-23T07:53:28.223Z,1.90
2018-09-23T07:54:33.390Z,1.50
2018-09-23T07:55:37.817Z,1.62
2018-09-23T07:56:42.906Z,1.75
2018-09-23T07:57:52.611Z,1.72
2018-09-23T07:58:57.331Z,1.77
2018-09-23T08:00:01.871Z,1.60
2018-09-23T08:01:07.512Z,1.15
2018-09-23T08:02:12.141Z,1.50
2018-09-23T08:03:17.724Z,1.10
2018-09-23T08:04:23.798Z,1.60
2018-09-23T08:05:28.690Z,1.20
2018-09-23T08:06:34.225Z,1.37
2018-09-23T08:07:40.779Z,1.35
2018-09-23T08:08:45.824Z,1.40
2018-09-23T08:09:52.269Z,1.40
2018-09-23T08:11:02.877Z,1.20
2018-09-23T08:12:13.031Z,1.80
2018-09-23T08:13:18.091Z,1.05
2018-09-23T08:14:23.759Z,1.40
2018-09-23T08:15:28.232Z,1.00
2018-09-23T08:16:32.804Z,1.50
2018-09-23T08:17:37.521Z,1.25
2018-09-23T08:18:42.240Z,1.22
2018-09-23T08:19:47.670Z,1.35
2018-09-23T08:20:53.229Z,1.30
2018-09-23T08:21:58.089Z,1.60
2018-09-23T08:23:06.112Z,1.30
2018-09-23T08:24:12.812Z,1.72
2018-09-23T08:25:18.866Z,1.55
2018-09-23T08:26:25.408Z,1.90
2018-09-23T08:27:31.263Z,1.60
2018-09-23T08:28:36.096Z,1.45
2018-09-23T08:29:40.717Z,1.15
2018-09-23T08:30:45.414Z,1.00
2018-09-23T08:31:50.528Z,1.42
2018-09-23T08:32:55.316Z,1.60
2018-09-23T08:33:59.840Z,1.80
2018-09-23T08:35:04.882Z,1.60
2018-09-23T08:36:10.354Z,1.50
2018-09-23T08:37:16.937Z,1.40
2018-09-23T08:38:22.515Z,1.70
2018-09-23T08:39:31.732Z,1.30
2018-09-23T08:40:37.454Z,0.98
2018-09-23T08:41:42.243Z,1.00
2018-09-23T08:42:53.302Z,1.00
2018-09-23T08:44:00.640Z,1.20
2018-09-23T08:45:05.495Z,1.10
2018-09-23T08:46:10.846Z,2.20
2018-09-23T08:47:19.433Z,1.72
2018-09-23T08:48:24.307Z,1.75
2018-09-23T08:49:29.035Z,1.57
2018-09-23T08:50:33.977Z,1.10
2018-09-23T08:51:39.275Z,2.00
2018-09-23T08:52:45.483Z,1.32
2018-09-23T08:53:51.035Z,1.57
2018-09-23T08:54:56.430Z,1.15
2018-09-23T08:56:01.478Z,1.50
2018-09-23T08:57:06.229Z,1.02
2018-09-23T08:58:11.448Z,1.40
2018-09-23T08:59:19.300Z,1.70
2018-09-23T09:00:24.841Z,1.20
2018-09-23T09:01:30.273Z,1.87
2018-09-23T09:02:35.151Z,1.60
2018-09-23T09:03:41.292Z,1.37
2018-09-23T09:04:49.830Z,1.45
2018-09-23T09:05:55.330Z,1.50
2018-09-23T09:07:03.430Z,1.57
2018-09-23T09:08:09.830Z,1.60
2018-09-23T09:09:16.238Z,1.55
2018-09-23T09:10:20.758Z,2.10
2018-09-23T09:11:26.488Z,1.80
2018-09-23T09:12:34.317Z,1.55
2018-09-23T09:13:39.775Z,1.50
2018-09-23T09:14:45.618Z,1.35
2018-09-23T09:15:50.379Z,1.55
2018-09-23T09:16:54.803Z,1.55
2018-09-23T09:17:59.755Z,1.52
2018-09-23T09:19:05.383Z,1.00
2018-09-23T09:20:10.185Z,1.40
2018-09-23T09:21:17.617Z,1.62
2018-09-23T09:22:23.171Z,1.40
2018-09-23T09:23:28.427Z,1.62
2018-09-23T09:24:33.666Z,1.37
2018-09-23T09:25:38.315Z,1.20
2018-09-23T09:26:46.132Z,1.32
2018-09-23T09:27:52.698Z,1.50
2018-09-23T09:28:58.670Z,1.60
2018-09-23T09:30:03.102Z,1.00
2018-09-23T09:31:07.653Z,0.90
2018-09-23T09:32:14.632Z,1.37
2018-09-23T09:33:19.185Z,1.30
2018-09-23T09:34:23.766Z,1.40
2018-09-23T09:35:29.569Z,1.40
2018-09-23T09:36:35.882Z,1.62
2018-09-23T09:37:41.385Z,1.45
2018-09-23T09:38:46.900Z,1.85
2018-09-23T09:39:52.162Z,1.90
2018-09-23T09:40:56.736Z,1.50
2018-09-23T09:42:01.969Z,1.70
2018-09-23T09:43:07.890Z,1.80
2018-09-23T09:44:14.111Z,1.57
2018-09-23T09:45:20.442Z,1.50
2018-09-23T09:46:25.337Z,1.60
2018-09-23T09:47:31.985Z,1.30
2018-09-23T09:48:37.683Z,1.17
2018-09-23T09:49:43.888Z,1.00
2018-09-23T09:50:49.949Z,1.45
2018-09-23T09:51:55.523Z,1.40
2018-09-23T09:53:01.253Z,1.20
2018-09-23T09:54:07.532Z,0.95
2018-09-23T09:55:12.137Z,1.35
2018-09-23T09:56:16.991Z,1.95
2018-09-23T09:57:22.274Z,1.25
2018-09-23T09:58:28.544Z,2.20
2018-09-23T09:59:34.276Z,1.45
2018-09-23T10:00:39.221Z,1.40
2018-09-23T10:01:45.065Z,1.95
2018-09-23T10:02:51.374Z,1.22
2018-09-23T10:03:55.956Z,1.60
2018-09-23T10:05:02.287Z,1.10
2018-09-23T10:06:08.392Z,2.00
2018-09-23T10:07:13.167Z,2.47
2018-09-23T10:08:17.892Z,1.70
2018-09-23T10:09:22.474Z,1.02
2018-09-23T10:10:27.450Z,0.98
2018-09-23T10:11:33.320Z,1.30
2018-09-23T10:12:38.747Z,1.90
2018-09-23T10:13:45.481Z,1.55
2018-09-23T10:14:50.279Z,1.50
2018-09-23T10:15:57.229Z,1.42
2018-09-23T10:17:03.394Z,1.70
2018-09-23T10:18:09.365Z,2.05
2018-09-23T10:19:14.146Z,2.10
2018-09-23T10:20:18.846Z,1.80
2018-09-23T10:21:23.307Z,1.72
2018-09-23T10:22:28.169Z,1.37
2018-09-23T10:23:33.407Z,1.60
2018-09-23T10:24:39.512Z,1.40
2018-09-23T10:25:44.290Z,1.50
2018-09-23T10:26:50.279Z,1.62
2018-09-23T10:27:57.786Z,1.52
2018-09-23T10:29:03.995Z,2.58
2018-09-23T10:30:10.505Z,1.70
2018-09-23T10:31:15.899Z,2.02
2018-09-23T10:32:22.419Z,1.60
2018-09-23T10:33:28.012Z,1.90
2018-09-23T10:34:32.661Z,1.87
2018-09-23T10:35:37.755Z,4.15
2018-09-23T10:36:42.856Z,2.45
2018-09-23T10:37:49.417Z,2.70
2018-09-23T10:38:54.144Z,4.53
2018-09-23T10:40:01.373Z,4.60
2018-09-23T10:42:23.311Z,5.65
2018-09-23T10:43:30.268Z,6.15
2018-09-23T10:44:36.024Z,7.22
2018-09-23T10:45:42.113Z,5.70
2018-09-23T10:46:46.930Z,4.33
2018-09-23T10:47:56.730Z,4.65
2018-09-23T10:49:03.139Z,4.90
2018-09-23T10:50:08.700Z,4.40
2018-09-23T10:51:14.260Z,3.70
2018-09-23T10:52:24.218Z,3.20
2018-09-23T10:53:33.831Z,2.75
2018-09-23T10:54:41.684Z,2.90
2018-09-23T10:55:54.860Z,2.10
2018-09-23T10:57:02.463Z,2.15
2018-09-23T10:58:21.777Z,1.98
2018-09-23T10:59:26.526Z,2.60
2018-09-23T11:00:32.704Z,2.30
2018-09-23T11:01:39.302Z,2.35
2018-09-23T11:02:43.958Z,2.47
2018-09-23T11:03:49.905Z,2.90
2018-09-23T11:04:55.610Z,3.22
2018-09-23T11:06:00.548Z,2.42
2018-09-23T11:07:05.187Z,2.50
2018-09-23T11:08:09.637Z,2.98
2018-09-23T11:09:14.880Z,2.85
2018-09-23T11:10:19.890Z,2.60
2018-09-23T11:11:26.839Z,3.02
2018-09-23T11:12:33.053Z,3.12
2018-09-23T11:13:40.833Z,2.55
2018-09-23T11:14:46.680Z,2.50
2018-09-23T11:15:53.108Z,3.20
2018-09-23T11:17:03.870Z,3.10
2018-09-23T11:18:09.821Z,2.65
2018-09-23T11:19:18.248Z,2.50
2018-09-23T11:20:22.690Z,2.80
2018-09-23T11:21:27.637Z,3.10
2018-09-23T11:22:33.241Z,13.98
2018-09-23T11:23:39.459Z,4.05
2018-09-23T11:24:47.868Z,3.58
2018-09-23T11:25:56.018Z,3.90
2018-09-23T11:27:01.659Z,3.58
2018-09-23T11:28:06.950Z,4.20
2018-09-23T11:29:15.618Z,3.72
2018-09-23T11:30:20.719Z,4.40
2018-09-23T11:31:26.149Z,5.10
2018-09-23T11:32:31.296Z,5.97
2018-09-23T11:33:36.628Z,3.80
2018-09-23T11:34:42.270Z,6.00
2018-09-23T11:35:47.640Z,4.75
2018-09-23T11:36:56.478Z,3.90
2018-09-23T11:38:03.266Z,4.03
2018-09-23T11:39:13.406Z,2.00
2018-09-23T11:40:19.794Z,2.00
2018-09-23T11:41:25.261Z,1.80
2018-09-23T11:42:31.132Z,1.70
2018-09-23T11:43:36.843Z,1.95
2018-09-23T11:44:42.101Z,2.00
2018-09-23T11:45:48.793Z,2.33
2018-09-23T11:46:55.423Z,1.40
2018-09-23T11:48:02.368Z,1.95
2018-09-23T11:49:09.867Z,1.72
2018-09-23T11:50:34.771Z,1.30
2018-09-23T11:52:14.804Z,1.32
2018-09-23T11:53:33.700Z,1.95
2018-09-23T11:55:57.454Z,2.37
2018-09-23T11:57:03.226Z,2.80
2018-09-23T11:58:09.973Z,2.30
2018-09-23T11:59:15.160Z,3.00
2018-09-23T12:00:23.000Z,2.00
2018-09-23T12:01:28.010Z,2.47
2018-09-23T12:02:34.047Z,1.55
2018-09-23T12:03:39.822Z,2.02
2018-09-23T12:04:44.963Z,1.92
2018-09-23T12:05:52.284Z,2.27
2018-09-23T12:07:06.640Z,2.80
2018-09-23T12:08:14.396Z,2.35
2018-09-23T12:09:29.190Z,2.12
2018-09-23T12:10:46.110Z,2.00
2018-09-23T12:12:01.188Z,2.20
2018-09-23T12:13:12.023Z,3.12
2018-09-23T12:14:29.623Z,2.20
2018-09-23T12:15:36.046Z,2.20
2018-09-23T12:16:43.752Z,2.30
2018-09-23T12:17:57.860Z,2.40
2018-09-23T12:19:05.189Z,2.10
2018-09-23T12:20:12.187Z,2.70
2018-09-23T12:21:24.496Z,3.05
2018-09-23T12:22:45.682Z,3.40
2018-09-23T12:24:15.590Z,2.50
2018-09-23T12:25:44.562Z,2.55
2018-09-23T12:27:05.742Z,2.52
2018-09-23T12:28:14.725Z,1.50
2018-09-23T12:30:09.425Z,2.10
2018-09-23T12:31:15.369Z,2.00
2018-09-23T12:32:25.880Z,1.67
2018-09-23T12:33:36.191Z,1.75
2018-09-23T12:34:48.919Z,1.72
2018-09-23T12:36:39.165Z,1.67
2018-09-23T12:38:00.540Z,1.52
2018-09-23T12:39:29.269Z,2.55
2018-09-23T12:41:01.042Z,2.40
2018-09-23T12:42:14.798Z,3.52
2018-09-23T12:43:22.023Z,3.50
2018-09-23T12:44:28.054Z,3.62
2018-09-23T12:45:35.571Z,2.98
2018-09-23T12:46:42.317Z,3.05
2018-09-23T12:47:52.540Z,2.90
2018-09-23T12:48:59.861Z,3.52
2018-09-23T12:50:05.373Z,3.22
2018-09-23T12:51:12.341Z,2.50
2018-09-23T12:52:20.061Z,2.65
2018-09-23T12:53:25.572Z,2.20
2018-09-23T12:54:34.521Z,2.22
2018-09-23T12:55:41.299Z,2.20
2018-09-23T12:56:47.215Z,1.65
2018-09-23T12:57:53.409Z,2.33
2018-09-23T12:59:04.117Z,2.10
2018-09-23T13:00:10.520Z,1.98
2018-09-23T13:01:19.208Z,2.12
2018-09-23T13:02:24.921Z,2.30
2018-09-23T13:03:32.486Z,2.33
2018-09-23T13:04:43.865Z,2.47
2018-09-23T13:05:57.153Z,2.50
2018-09-23T13:07:19.023Z,2.47
2018-09-23T13:08:37.443Z,2.17
2018-09-23T13:09:55.494Z,2.80
2018-09-23T13:11:21.200Z,2.27
2018-09-23T13:14:02.227Z,2.22
2018-09-23T13:15:30.359Z,2.35
2018-09-23T13:16:37.607Z,2.30
2018-09-23T13:18:00.699Z,2.55
2018-09-23T13:19:13.903Z,1.87
2018-09-23T13:20:24.616Z,2.70
2018-09-23T13:21:38.005Z,2.10
2018-09-23T13:23:08.981Z,2.20
2018-09-23T13:25:54.056Z,2.37
2018-09-23T13:27:00.278Z,2.90
2018-09-23T13:28:09.826Z,2.00
2018-09-23T13:29:15.551Z,2.35
2018-09-23T13:30:26.592Z,2.20
2018-09-23T13:31:32.216Z,2.33
2018-09-23T13:32:41.482Z,2.05
2018-09-23T13:33:48.938Z,2.37
2018-09-23T13:34:55.264Z,1.85
2018-09-23T13:36:02.724Z,1.75
2018-09-23T13:37:12.375Z,2.17
2018-09-23T13:38:18.235Z,1.90
2018-09-23T13:39:23.158Z,2.22
2018-09-23T13:40:28.584Z,2.75
2018-09-23T13:41:36.755Z,2.40
2018-09-23T13:42:43.359Z,4.08
2018-09-23T13:43:49.486Z,3.02
2018-09-23T13:44:57.840Z,2.40
2018-09-23T13:46:06.316Z,1.60
2018-09-23T13:47:12.730Z,2.70
2018-09-23T13:48:21.426Z,2.60
2018-09-23T13:49:27.868Z,2.58
2018-09-23T13:51:05.403Z,2.33
2018-09-23T13:53:31.821Z,2.87
2018-09-23T13:54:37.359Z,1.65
2018-09-23T13:55:43.785Z,2.33
2018-09-23T13:56:52.956Z,2.12
2018-09-23T13:57:58.489Z,1.80
2018-09-23T13:59:07.531Z,1.57
2018-09-23T14:00:25.711Z,1.77
2018-09-23T14:01:35.419Z,1.32
2018-09-23T14:02:40.190Z,1.80
2018-09-23T14:03:47.257Z,1.52
2018-09-23T14:04:54.991Z,1.75
2018-09-23T14:06:02.511Z,1.72
2018-09-23T14:07:07.855Z,1.90
2018-09-23T14:08:14.195Z,1.37
2018-09-23T14:09:19.641Z,1.70
2018-09-23T14:10:25.780Z,2.02
2018-09-23T14:11:32.121Z,1.67
2018-09-23T14:12:38.418Z,2.33
2018-09-23T14:13:46.194Z,2.08
2018-09-23T14:14:52.715Z,1.65
2018-09-23T14:15:59.045Z,1.62
2018-09-23T14:17:03.541Z,1.80
2018-09-23T14:18:08.268Z,1.98
2018-09-23T14:19:12.704Z,1.32
2018-09-23T14:20:20.972Z,2.80
2018-09-23T14:22:28.940Z,2.02
2018-09-23T14:23:35.085Z,2.58
2018-09-23T14:24:42.000Z,3.15
2018-09-23T14:25:49.257Z,2.40
2018-09-23T14:26:55.687Z,2.45
2018-09-23T14:28:01.352Z,3.30
2018-09-23T14:29:07.430Z,3.30
2018-09-23T14:30:13.807Z,3.47
2018-09-23T14:31:20.568Z,3.80
2018-09-23T14:32:32.457Z,3.90
2018-09-23T14:33:37.310Z,3.30
2018-09-23T14:34:44.668Z,4.12
2018-09-23T14:35:49.806Z,3.67
2018-09-23T14:36:57.271Z,3.95
2018-09-23T14:38:04.350Z,4.37
2018-09-23T14:39:13.472Z,3.50
2018-09-23T14:40:20.371Z,4.30
2018-09-23T14:41:26.063Z,3.65
2018-09-23T14:42:31.348Z,3.87
2018-09-23T14:43:39.224Z,4.28
2018-09-23T14:44:45.763Z,3.70
2018-09-23T14:45:52.662Z,4.33
2018-09-23T14:47:00.619Z,4.00
2018-09-23T14:48:05.902Z,4.40
2018-09-23T14:51:06.389Z,4.50
2018-09-23T14:52:11.249Z,5.55
2018-09-23T14:53:18.581Z,5.35